Time,TemperatureF,DewpointF,PressureIn,WindDirection,WindDirectionDegrees,WindSpeedMPH,WindSpeedGustMPH,Humidity,HourlyPrecipIn,Conditions,Clouds,dailyrainin,SoftwareType,DateUTC
2013-05-26 00:00:00,73.2,69.4,30.05,ESE,117,3.0,4.0,88,0.00,,,0.00,VWS V14.01,2013-05-26 05:00:00,
2013-05-26 00:05:00,73.2,69.4,30.04,ESE,111,2.0,4.0,88,0.00,,,0.00,VWS V14.01,2013-05-26 05:05:00,
2013-05-26 00:10:00,73.1,69.3,30.04,ESE,108,3.0,4.0,88,0.00,,,0.00,VWS V14.01,2013-05-26 05:10:00,
2013-05-26 00:15:00,73.0,69.6,30.04,ESE,119,4.0,6.0,89,0.00,,,0.00,VWS V14.01,2013-05-26 05:15:00,
2013-05-26 00:20:00,73.1,69.3,30.03,ESE,112,8.0,8.0,88,0.00,,,0.00,VWS V14.01,2013-05-26 05:20:00,
2013-05-26 00:25:00,73.0,69.2,30.03,ESE,115,4.0,6.0,88,0.00,,,0.00,VWS V14.01,2013-05-26 05:25:00,
2013-05-26 00:30:00,73.0,69.2,30.03,ESE,120,6.0,9.0,88,0.00,,,0.00,VWS V14.01,2013-05-26 05:30:00,
2013-05-26 00:35:00,73.1,69.3,30.03,SE,144,6.0,8.0,88,0.00,,,0.00,VWS V14.01,2013-05-26 05:35:00,
2013-05-26 00:40:00,73.1,69.0,30.03,SSE,147,4.0,9.0,87,0.00,,,0.00,VWS V14.01,2013-05-26 05:40:00,
2013-05-26 00:45:00,73.1,69.0,30.03,SE,125,7.0,9.0,87,0.00,,,0.00,VWS V14.01,2013-05-26 05:45:00,
2013-05-26 00:50:00,73.0,68.9,30.03,SE,132,4.0,5.0,87,0.00,,,0.00,VWS V14.01,2013-05-26 05:50:00,
2013-05-26 00:55:00,72.9,68.8,30.03,SE,133,6.0,6.0,87,0.00,,,0.00,VWS V14.01,2013-05-26 05:55:00,
2013-05-26 01:00:00,72.8,68.7,30.03,SE,139,7.0,7.0,87,0.00,,,0.00,VWS V14.01,2013-05-26 06:00:00,
2013-05-26 01:05:00,72.7,68.6,30.02,SE,133,5.0,8.0,87,0.00,,,0.00,VWS V14.01,2013-05-26 06:05:00,
2013-05-26 01:10:00,72.6,68.5,30.02,SSE,150,8.0,11.0,87,0.00,,,0.00,VWS V14.01,2013-05-26 06:10:00,
2013-05-26 01:15:00,72.5,68.4,30.02,SE,125,3.0,6.0,87,0.00,,,0.00,VWS V14.01,2013-05-26 06:15:00,
2013-05-26 01:20:00,72.5,68.4,30.02,ESE,116,11.0,11.0,87,0.00,,,0.00,VWS V14.01,2013-05-26 06:20:00,
2013-05-26 01:26:00,72.5,68.4,30.02,SE,132,4.0,7.0,87,0.00,,,0.00,VWS V14.01,2013-05-26 06:26:00,
2013-05-26 01:31:00,72.5,68.4,30.02,SE,140,4.0,9.0,87,0.00,,,0.00,VWS V14.01,2013-05-26 06:31:00,
2013-05-26 01:36:00,72.5,68.4,30.02,SE,130,2.0,5.0,87,0.00,,,0.00,VWS V14.01,2013-05-26 06:36:00,
2013-05-26 01:41:00,72.5,68.4,30.02,SE,142,4.0,6.0,87,0.00,,,0.00,VWS V14.01,2013-05-26 06:41:00,
2013-05-26 01:45:00,72.5,68.4,30.01,SSE,149,5.0,8.0,87,0.00,,,0.00,VWS V14.01,2013-05-26 06:45:00,
2013-05-26 01:50:00,72.4,68.3,30.01,SE,125,4.0,6.0,87,0.00,,,0.00,VWS V14.01,2013-05-26 06:50:00,
2013-05-26 01:55:00,72.4,68.7,30.01,SSE,153,5.0,5.0,88,0.00,,,0.00,VWS V14.01,2013-05-26 06:55:00,
2013-05-26 02:00:00,72.4,68.7,30.01,ESE,111,6.0,8.0,88,0.00,,,0.00,VWS V14.01,2013-05-26 07:00:00,
2013-05-26 02:05:00,72.4,68.7,30.01,SE,133,10.0,10.0,88,0.00,,,0.00,VWS V14.01,2013-05-26 07:05:00,
2013-05-26 02:10:00,72.4,68.7,30.01,ESE,119,7.0,7.0,88,0.00,,,0.00,VWS V14.01,2013-05-26 07:10:00,
2013-05-26 02:15:00,72.4,68.7,30.01,ESE,112,3.0,5.0,88,0.00,,,0.00,VWS V14.01,2013-05-26 07:15:00,
2013-05-26 02:20:00,72.4,68.7,30.01,SSE,150,5.0,5.0,88,0.00,,,0.00,VWS V14.01,2013-05-26 07:20:00,
2013-05-26 02:25:00,72.4,68.7,30.01,SSE,168,3.0,4.0,88,0.00,,,0.00,VWS V14.01,2013-05-26 07:25:00,
2013-05-26 02:30:00,72.4,68.7,30.01,SE,144,2.0,5.0,88,0.00,,,0.00,VWS V14.01,2013-05-26 07:30:00,
2013-05-26 02:35:00,72.5,68.8,30.00,SE,143,5.0,6.0,88,0.00,,,0.00,VWS V14.01,2013-05-26 07:35:00,
2013-05-26 02:40:00,72.5,68.8,30.00,ESE,113,3.0,4.0,88,0.00,,,0.00,VWS V14.01,2013-05-26 07:40:00,
2013-05-26 02:45:00,72.5,68.8,30.01,SE,143,2.0,2.0,88,0.00,,,0.00,VWS V14.01,2013-05-26 07:45:00,
2013-05-26 02:50:00,72.5,68.8,30.01,SE,139,4.0,5.0,88,0.00,,,0.00,VWS V14.01,2013-05-26 07:50:00,
2013-05-26 02:55:00,72.5,68.8,30.01,SSE,156,2.0,4.0,88,0.00,,,0.00,VWS V14.01,2013-05-26 07:55:00,
2013-05-26 03:00:00,72.5,69.1,30.01,SE,142,4.0,5.0,89,0.00,,,0.00,VWS V14.01,2013-05-26 08:00:00,
2013-05-26 03:05:00,72.5,69.1,30.01,SE,143,3.0,5.0,89,0.00,,,0.00,VWS V14.01,2013-05-26 08:05:00,
2013-05-26 03:10:00,72.5,69.1,30.01,SE,134,4.0,4.0,89,0.00,,,0.00,VWS V14.01,2013-05-26 08:10:00,
2013-05-26 03:15:00,72.4,69.0,30.01,SSE,163,3.0,3.0,89,0.00,,,0.00,VWS V14.01,2013-05-26 08:15:00,
2013-05-26 03:20:00,72.4,69.0,30.01,SE,143,2.0,2.0,89,0.00,,,0.00,VWS V14.01,2013-05-26 08:20:00,
2013-05-26 03:25:00,72.4,69.0,30.01,SE,143,2.0,2.0,89,0.00,,,0.00,VWS V14.01,2013-05-26 08:25:00,
2013-05-26 03:30:00,72.5,69.1,30.02,SSE,158,0.0,1.0,89,0.00,,,0.00,VWS V14.01,2013-05-26 08:30:00,
2013-05-26 03:35:00,72.4,69.0,30.02,SSE,154,1.0,1.0,89,0.00,,,0.00,VWS V14.01,2013-05-26 08:35:00,
2013-05-26 03:40:00,72.5,69.1,30.02,ESE,120,1.0,1.0,89,0.00,,,0.00,VWS V14.01,2013-05-26 08:40:00,
2013-05-26 03:45:00,72.5,69.1,30.02,ESE,102,2.0,3.0,89,0.00,,,0.00,VWS V14.01,2013-05-26 08:45:00,
2013-05-26 03:50:00,72.5,69.1,30.02,ESE,104,1.0,2.0,89,0.00,,,0.00,VWS V14.01,2013-05-26 08:50:00,
2013-05-26 03:55:00,72.5,69.1,30.02,SE,129,1.0,3.0,89,0.00,,,0.00,VWS V14.01,2013-05-26 08:55:00,
2013-05-26 04:00:00,72.5,69.1,30.02,ESE,108,2.0,2.0,89,0.00,,,0.00,VWS V14.01,2013-05-26 09:00:00,
2013-05-26 04:05:00,72.4,69.0,30.02,ESE,119,1.0,2.0,89,0.00,,,0.00,VWS V14.01,2013-05-26 09:05:00,
2013-05-26 04:10:00,72.4,69.0,30.01,SE,137,5.0,5.0,89,0.00,,,0.00,VWS V14.01,2013-05-26 09:10:00,
2013-05-26 04:15:00,72.3,68.9,30.01,SE,137,3.0,3.0,89,0.00,,,0.00,VWS V14.01,2013-05-26 09:15:00,
2013-05-26 04:20:00,72.3,68.9,30.00,SE,144,4.0,4.0,89,0.00,,,0.00,VWS V14.01,2013-05-26 09:20:00,
2013-05-26 04:25:00,72.2,68.8,30.00,SE,133,5.0,6.0,89,0.00,,,0.00,VWS V14.01,2013-05-26 09:25:00,
2013-05-26 04:30:00,72.2,69.1,30.00,SE,126,6.0,6.0,90,0.00,,,0.00,VWS V14.01,2013-05-26 09:30:00,
2013-05-26 04:35:00,72.1,69.0,30.00,East,94,4.0,4.0,90,0.00,,,0.00,VWS V14.01,2013-05-26 09:35:00,
2013-05-26 04:40:00,71.9,68.8,30.00,ESE,109,2.0,3.0,90,0.00,,,0.00,VWS V14.01,2013-05-26 09:40:00,
2013-05-26 04:45:00,71.8,68.7,30.00,East,91,3.0,3.0,90,0.00,,,0.00,VWS V14.01,2013-05-26 09:45:00,
2013-05-26 04:50:00,71.8,68.7,29.99,ENE,70,1.0,2.0,90,0.00,,,0.00,VWS V14.01,2013-05-26 09:50:00,
2013-05-26 04:55:00,71.8,68.7,30.00,East,95,2.0,2.0,90,0.00,,,0.00,VWS V14.01,2013-05-26 09:55:00,
2013-05-26 05:00:00,71.8,68.7,30.00,SE,137,3.0,3.0,90,0.00,,,0.00,VWS V14.01,2013-05-26 10:00:00,
2013-05-26 05:05:00,71.8,68.7,30.00,SE,140,4.0,4.0,90,0.00,,,0.00,VWS V14.01,2013-05-26 10:05:00,
2013-05-26 05:10:00,71.9,68.8,30.00,SE,142,3.0,5.0,90,0.00,,,0.00,VWS V14.01,2013-05-26 10:10:00,
2013-05-26 05:15:00,72.0,68.9,30.00,SE,146,3.0,3.0,90,0.00,,,0.00,VWS V14.01,2013-05-26 10:15:00,
2013-05-26 05:20:00,72.0,68.9,30.00,SE,140,2.0,2.0,90,0.00,,,0.00,VWS V14.01,2013-05-26 10:20:00,
2013-05-26 05:25:00,72.0,68.9,30.00,SE,129,1.0,2.0,90,0.00,,,0.00,VWS V14.01,2013-05-26 10:25:00,
2013-05-26 05:30:00,72.0,68.9,30.00,SE,130,2.0,2.0,90,0.00,,,0.00,VWS V14.01,2013-05-26 10:30:00,
2013-05-26 05:35:00,72.0,68.9,30.00,SE,133,4.0,4.0,90,0.00,,,0.00,VWS V14.01,2013-05-26 10:35:00,
2013-05-26 05:40:00,72.0,68.9,30.00,ESE,120,2.0,2.0,90,0.00,,,0.00,VWS V14.01,2013-05-26 10:40:00,
2013-05-26 05:45:00,72.0,68.9,30.00,SE,133,4.0,4.0,90,0.00,,,0.00,VWS V14.01,2013-05-26 10:45:00,
2013-05-26 05:50:00,71.9,68.8,30.00,ESE,111,2.0,3.0,90,0.00,,,0.00,VWS V14.01,2013-05-26 10:50:00,
2013-05-26 05:55:00,71.8,68.7,30.00,ESE,119,4.0,4.0,90,0.00,,,0.00,VWS V14.01,2013-05-26 10:55:00,
2013-05-26 06:00:00,71.5,68.4,30.00,ESE,116,5.0,7.0,90,0.00,,,0.00,VWS V14.01,2013-05-26 11:00:00,
2013-05-26 06:05:00,71.4,68.6,30.00,ESE,112,5.0,6.0,91,0.00,,,0.00,VWS V14.01,2013-05-26 11:05:00,
2013-05-26 06:10:00,71.3,68.5,30.00,ESE,108,6.0,7.0,91,0.00,,,0.00,VWS V14.01,2013-05-26 11:10:00,
2013-05-26 06:15:00,71.2,68.4,29.99,ESE,115,7.0,7.0,91,0.00,,,0.00,VWS V14.01,2013-05-26 11:15:00,
2013-05-26 06:20:00,71.1,68.3,29.99,ESE,112,10.0,10.0,91,0.00,,,0.00,VWS V14.01,2013-05-26 11:20:00,
2013-05-26 06:25:00,71.1,68.3,29.99,East,98,3.0,6.0,91,0.00,,,0.00,VWS V14.01,2013-05-26 11:25:00,
2013-05-26 06:30:00,71.1,68.3,29.98,ENE,71,4.0,4.0,91,0.00,,,0.00,VWS V14.01,2013-05-26 11:30:00,
2013-05-26 06:35:00,71.1,68.3,29.99,ESE,108,3.0,3.0,91,0.00,,,0.00,VWS V14.01,2013-05-26 11:35:00,
2013-05-26 06:40:00,71.0,68.2,30.00,SSE,150,2.0,2.0,91,0.00,,,0.00,VWS V14.01,2013-05-26 11:40:00,
2013-05-26 06:45:00,70.9,68.2,30.00,SSE,149,3.0,3.0,91,0.00,,,0.00,VWS V14.01,2013-05-26 11:45:00,
2013-05-26 06:50:00,70.9,68.2,30.00,SSE,154,4.0,6.0,91,0.00,,,0.00,VWS V14.01,2013-05-26 11:50:00,
2013-05-26 06:55:00,71.0,68.6,30.00,SSE,150,2.0,6.0,92,0.00,,,0.00,VWS V14.01,2013-05-26 11:55:00,
2013-05-26 07:00:00,71.0,68.6,30.01,SE,136,1.0,4.0,92,0.00,,,0.00,VWS V14.01,2013-05-26 12:00:00,
2013-05-26 07:05:00,71.1,68.7,30.01,SE,136,3.0,3.0,92,0.00,,,0.00,VWS V14.01,2013-05-26 12:05:00,
2013-05-26 07:10:00,71.2,68.4,30.01,SE,126,4.0,6.0,91,0.00,,,0.00,VWS V14.01,2013-05-26 12:10:00,
2013-05-26 07:15:00,71.3,68.5,30.01,SE,137,5.0,5.0,91,0.00,,,0.00,VWS V14.01,2013-05-26 12:15:00,
2013-05-26 07:20:00,71.4,68.6,30.01,East,89,2.0,7.0,91,0.00,,,0.00,VWS V14.01,2013-05-26 12:20:00,
2013-05-26 07:25:00,71.6,68.8,30.01,ESE,120,5.0,7.0,91,0.00,,,0.00,VWS V14.01,2013-05-26 12:25:00,
2013-05-26 07:30:00,71.7,68.9,30.01,SSE,149,4.0,5.0,91,0.00,,,0.00,VWS V14.01,2013-05-26 12:30:00,
2013-05-26 07:35:00,71.8,69.0,30.01,SE,130,2.0,3.0,91,0.00,,,0.00,VWS V14.01,2013-05-26 12:35:00,
2013-05-26 07:40:00,71.9,68.8,30.00,SE,125,5.0,5.0,90,0.00,,,0.00,VWS V14.01,2013-05-26 12:40:00,
2013-05-26 07:45:00,72.0,69.2,30.00,ESE,119,6.0,6.0,91,0.00,,,0.00,VWS V14.01,2013-05-26 12:45:00,
2013-05-26 07:50:00,72.1,69.3,30.00,ESE,111,6.0,8.0,91,0.00,,,0.00,VWS V14.01,2013-05-26 12:50:00,
2013-05-26 07:55:00,72.2,69.4,30.00,SE,130,4.0,7.0,91,0.00,,,0.00,VWS V14.01,2013-05-26 12:55:00,
2013-05-26 08:00:00,72.3,69.5,30.00,ESE,111,5.0,5.0,91,0.00,,,0.00,VWS V14.01,2013-05-26 13:00:00,
2013-05-26 08:05:00,72.4,69.6,30.00,SE,133,4.0,4.0,91,0.00,,,0.00,VWS V14.01,2013-05-26 13:05:00,
2013-05-26 08:10:00,72.7,69.6,30.00,SE,139,5.0,6.0,90,0.00,,,0.00,VWS V14.01,2013-05-26 13:10:00,
2013-05-26 08:15:00,72.9,69.8,30.00,SE,137,7.0,7.0,90,0.00,,,0.00,VWS V14.01,2013-05-26 13:15:00,
2013-05-26 08:20:00,73.1,70.0,30.00,SE,137,5.0,7.0,90,0.00,,,0.00,VWS V14.01,2013-05-26 13:20:00,
2013-05-26 08:25:00,73.0,69.6,30.01,SSE,151,4.0,8.0,89,0.00,,,0.00,VWS V14.01,2013-05-26 13:25:00,
2013-05-26 08:30:00,73.1,69.7,30.01,SSE,166,4.0,7.0,89,0.00,,,0.00,VWS V14.01,2013-05-26 13:30:00,
2013-05-26 08:35:00,73.5,70.1,30.01,SE,142,8.0,8.0,89,0.00,,,0.00,VWS V14.01,2013-05-26 13:35:00,
2013-05-26 08:40:00,73.7,70.3,30.01,SSE,154,6.0,6.0,89,0.00,,,0.00,VWS V14.01,2013-05-26 13:40:00,
2013-05-26 08:45:00,73.9,70.1,30.02,SE,134,7.0,9.0,88,0.00,,,0.00,VWS V14.01,2013-05-26 13:45:00,
2013-05-26 08:50:00,73.9,70.1,30.02,SSE,157,5.0,6.0,88,0.00,,,0.00,VWS V14.01,2013-05-26 13:50:00,
2013-05-26 08:55:00,74.0,70.2,30.02,SSE,154,7.0,7.0,88,0.00,,,0.00,VWS V14.01,2013-05-26 13:55:00,
2013-05-26 09:00:00,74.0,69.9,30.02,SE,132,11.0,11.0,87,0.00,,,0.00,VWS V14.01,2013-05-26 14:00:00,
2013-05-26 09:05:00,74.2,70.1,30.02,SE,144,4.0,6.0,87,0.00,,,0.00,VWS V14.01,2013-05-26 14:05:00,
2013-05-26 09:10:00,74.3,70.2,30.02,SE,137,6.0,7.0,87,0.00,,,0.00,VWS V14.01,2013-05-26 14:10:00,
2013-05-26 09:15:00,74.6,70.5,30.02,SSE,149,4.0,9.0,87,0.00,,,0.00,VWS V14.01,2013-05-26 14:15:00,
2013-05-26 09:20:00,74.8,70.3,30.02,SE,129,9.0,9.0,86,0.00,,,0.00,VWS V14.01,2013-05-26 14:20:00,
2013-05-26 09:25:00,75.1,70.6,30.02,SSE,147,6.0,9.0,86,0.00,,,0.00,VWS V14.01,2013-05-26 14:25:00,
2013-05-26 09:30:00,75.6,71.1,30.02,SSE,161,9.0,10.0,86,0.00,,,0.00,VWS V14.01,2013-05-26 14:30:00,
2013-05-26 09:35:00,75.9,71.1,30.02,SSE,158,4.0,8.0,85,0.00,,,0.00,VWS V14.01,2013-05-26 14:35:00,
2013-05-26 09:40:00,76.0,71.2,30.02,SE,133,8.0,9.0,85,0.00,,,0.00,VWS V14.01,2013-05-26 14:40:00,
2013-05-26 09:45:00,76.0,71.2,30.02,SE,143,8.0,12.0,85,0.00,,,0.00,VWS V14.01,2013-05-26 14:45:00,
2013-05-26 09:50:00,75.8,71.0,30.02,SE,132,11.0,11.0,85,0.00,,,0.00,VWS V14.01,2013-05-26 14:50:00,
2013-05-26 09:55:00,75.7,70.9,30.02,ESE,119,8.0,9.0,85,0.00,,,0.00,VWS V14.01,2013-05-26 14:55:00,
2013-05-26 10:00:00,75.8,71.0,30.02,SSE,161,7.0,9.0,85,0.00,,,0.00,VWS V14.01,2013-05-26 15:00:00,
2013-05-26 10:05:00,76.3,71.1,30.02,SE,143,6.0,7.0,84,0.00,,,0.00,VWS V14.01,2013-05-26 15:05:00,
2013-05-26 10:10:00,76.7,71.2,30.01,South,180,8.0,8.0,83,0.00,,,0.00,VWS V14.01,2013-05-26 15:10:00,
2013-05-26 10:15:00,76.9,71.3,30.01,SE,139,5.0,7.0,83,0.00,,,0.00,VWS V14.01,2013-05-26 15:15:00,
2013-05-26 10:20:00,77.1,71.2,30.01,South,188,8.0,9.0,82,0.00,,,0.00,VWS V14.01,2013-05-26 15:20:00,
2013-05-26 10:25:00,77.4,71.5,30.01,SSE,149,6.0,8.0,82,0.00,,,0.00,VWS V14.01,2013-05-26 15:25:00,
2013-05-26 10:30:00,77.9,71.6,30.01,SE,127,13.0,15.0,81,0.00,,,0.00,VWS V14.01,2013-05-26 15:30:00,
2013-05-26 10:35:00,77.6,70.9,30.01,SSE,147,14.0,16.0,80,0.00,,,0.00,VWS V14.01,2013-05-26 15:35:00,
2013-05-26 10:40:00,77.8,71.9,30.02,SSE,158,3.0,5.0,82,0.00,,,0.00,VWS V14.01,2013-05-26 15:40:00,
2013-05-26 10:45:00,78.0,71.7,30.01,SSE,151,8.0,9.0,81,0.00,,,0.00,VWS V14.01,2013-05-26 15:45:00,
2013-05-26 10:50:00,78.1,71.8,30.01,SE,136,11.0,11.0,81,0.00,,,0.00,VWS V14.01,2013-05-26 15:50:00,
2013-05-26 10:55:00,78.2,71.2,30.01,SE,134,12.0,12.0,79,0.00,,,0.00,VWS V14.01,2013-05-26 15:55:00,
2013-05-26 11:00:00,78.3,71.6,30.02,SE,135,7.0,7.0,80,0.00,,,0.00,VWS V14.01,2013-05-26 16:00:00,
2013-05-26 11:05:00,78.5,71.4,30.02,SE,135,11.0,15.0,79,0.00,,,0.00,VWS V14.01,2013-05-26 16:05:00,
2013-05-26 11:10:00,78.3,71.3,30.02,SE,136,9.0,10.0,79,0.00,,,0.00,VWS V14.01,2013-05-26 16:10:00,
2013-05-26 11:15:00,78.4,71.0,30.01,SE,137,9.0,10.0,78,0.00,,,0.00,VWS V14.01,2013-05-26 16:15:00,
2013-05-26 11:20:00,78.6,71.6,30.01,SSE,167,8.0,11.0,79,0.00,,,0.00,VWS V14.01,2013-05-26 16:20:00,
2013-05-26 11:25:00,78.7,71.3,30.01,SE,136,6.0,7.0,78,0.00,,,0.00,VWS V14.01,2013-05-26 16:25:00,
2013-05-26 11:30:00,78.8,71.4,30.01,SSE,163,10.0,10.0,78,0.00,,,0.00,VWS V14.01,2013-05-26 16:30:00,
2013-05-26 11:35:00,78.8,71.4,30.00,SSW,202,5.0,5.0,78,0.00,,,0.00,VWS V14.01,2013-05-26 16:35:00,
2013-05-26 11:40:00,79.0,71.6,30.00,SSE,154,7.0,12.0,78,0.00,,,0.00,VWS V14.01,2013-05-26 16:40:00,
2013-05-26 11:45:00,79.1,71.3,30.00,SSE,165,3.0,4.0,77,0.00,,,0.00,VWS V14.01,2013-05-26 16:45:00,
2013-05-26 11:50:00,79.4,71.6,30.00,SSE,161,10.0,10.0,77,0.00,,,0.00,VWS V14.01,2013-05-26 16:50:00,
2013-05-26 11:55:00,79.2,71.4,30.00,SSE,148,9.0,9.0,77,0.00,,,0.00,VWS V14.01,2013-05-26 16:55:00,
2013-05-26 12:00:00,79.2,71.4,30.00,ESE,113,14.0,14.0,77,0.00,,,0.00,VWS V14.01,2013-05-26 17:00:00,
2013-05-26 12:05:00,79.4,71.2,30.00,SE,136,6.0,14.0,76,0.00,,,0.00,VWS V14.01,2013-05-26 17:05:00,
2013-05-26 12:11:00,80.1,72.2,30.00,SSE,149,4.0,6.0,77,0.00,,,0.00,VWS V14.01,2013-05-26 17:11:00,
2013-05-26 12:16:00,80.3,71.7,30.00,South,182,6.0,7.0,75,0.00,,,0.00,VWS V14.01,2013-05-26 17:16:00,
2013-05-26 12:21:00,80.2,71.6,30.00,South,172,8.0,9.0,75,0.00,,,0.00,VWS V14.01,2013-05-26 17:21:00,
2013-05-26 12:26:00,80.3,71.3,30.00,SSE,160,10.0,15.0,74,0.00,,,0.00,VWS V14.01,2013-05-26 17:26:00,
2013-05-26 12:32:00,80.5,71.8,30.00,SSE,153,5.0,11.0,75,0.00,,,0.00,VWS V14.01,2013-05-26 17:32:00,
2013-05-26 12:37:00,81.3,72.6,29.99,SSE,163,8.0,11.0,75,0.00,,,0.00,VWS V14.01,2013-05-26 17:37:00,
2013-05-26 12:43:00,81.2,71.3,29.99,SSE,151,9.0,12.0,72,0.00,,,0.00,VWS V14.01,2013-05-26 17:43:00,
2013-05-26 12:47:00,81.9,72.0,29.99,SE,139,8.0,12.0,72,0.00,,,0.00,VWS V14.01,2013-05-26 17:47:00,
2013-05-26 12:53:00,82.1,71.3,29.99,South,178,11.0,16.0,70,0.00,,,0.00,VWS V14.01,2013-05-26 17:53:00,
2013-05-26 12:58:00,82.6,72.7,29.99,SE,126,8.0,11.0,72,0.00,,,0.00,VWS V14.01,2013-05-26 17:58:00,
2013-05-26 13:03:00,82.0,71.7,29.99,SSE,165,10.0,16.0,71,0.00,,,0.00,VWS V14.01,2013-05-26 18:03:00,
2013-05-26 13:10:00,81.7,71.4,29.99,South,171,12.0,13.0,71,0.00,,,0.00,VWS V14.01,2013-05-26 18:10:00,
2013-05-26 13:15:00,81.9,72.0,29.98,SE,126,13.0,13.0,72,0.00,,,0.00,VWS V14.01,2013-05-26 18:15:00,
2013-05-26 13:20:00,82.1,72.6,29.98,SSW,210,9.0,14.0,73,0.00,,,0.00,VWS V14.01,2013-05-26 18:20:00,
2013-05-26 13:25:00,82.5,71.7,29.98,South,182,10.0,14.0,70,0.00,,,0.00,VWS V14.01,2013-05-26 18:25:00,
2013-05-26 13:31:00,82.6,72.2,29.98,SE,142,9.0,16.0,71,0.00,,,0.00,VWS V14.01,2013-05-26 18:31:00,
2013-05-26 13:36:00,82.3,71.5,29.98,SE,144,9.0,14.0,70,0.00,,,0.00,VWS V14.01,2013-05-26 18:36:00,
2013-05-26 13:41:00,82.1,71.3,29.98,SSE,156,13.0,13.0,70,0.00,,,0.00,VWS V14.01,2013-05-26 18:41:00,
2013-05-26 13:46:00,82.1,72.2,29.98,SE,137,6.0,8.0,72,0.00,,,0.00,VWS V14.01,2013-05-26 18:46:00,
2013-05-26 13:51:00,82.6,71.8,29.98,SSE,154,8.0,12.0,70,0.00,,,0.00,VWS V14.01,2013-05-26 18:51:00,
2013-05-26 13:58:00,82.4,71.6,29.98,South,171,8.0,13.0,70,0.00,,,0.00,VWS V14.01,2013-05-26 18:58:00,
2013-05-26 14:03:00,82.2,71.4,29.98,SSE,158,7.0,12.0,70,0.00,,,0.00,VWS V14.01,2013-05-26 19:03:00,
2013-05-26 14:11:00,82.4,72.1,29.98,SSE,158,7.0,9.0,71,0.00,,,0.00,VWS V14.01,2013-05-26 19:11:00,
2013-05-26 14:16:00,82.4,71.6,29.98,SE,143,11.0,13.0,70,0.00,,,0.00,VWS V14.01,2013-05-26 19:16:00,
2013-05-26 14:21:00,82.6,71.4,29.98,SSW,196,7.0,12.0,69,0.00,,,0.00,VWS V14.01,2013-05-26 19:21:00,
2013-05-26 14:26:00,82.9,71.3,29.97,SSE,156,8.0,11.0,68,0.00,,,0.00,VWS V14.01,2013-05-26 19:26:00,
2013-05-26 14:31:00,82.7,71.5,29.97,SSW,203,6.0,11.0,69,0.00,,,0.00,VWS V14.01,2013-05-26 19:31:00,
2013-05-26 14:36:00,82.8,72.0,29.97,SSE,157,9.0,14.0,70,0.00,,,0.00,VWS V14.01,2013-05-26 19:36:00,
2013-05-26 14:41:00,83.0,71.4,29.97,SSE,163,4.0,8.0,68,0.00,,,0.00,VWS V14.01,2013-05-26 19:41:00,
2013-05-26 14:48:00,83.0,72.2,29.96,SE,139,4.0,8.0,70,0.00,,,0.00,VWS V14.01,2013-05-26 19:48:00,
2013-05-26 14:53:00,83.3,72.1,29.96,South,191,6.0,11.0,69,0.00,,,0.00,VWS V14.01,2013-05-26 19:53:00,
2013-05-26 14:59:00,84.3,72.2,29.96,SSW,200,6.0,12.0,67,0.00,,,0.00,VWS V14.01,2013-05-26 19:59:00,
2013-05-26 15:04:00,85.4,73.2,29.96,South,187,5.0,11.0,67,0.00,,,0.00,VWS V14.01,2013-05-26 20:04:00,
2013-05-26 15:09:00,84.8,71.7,29.96,SE,145,13.0,16.0,65,0.00,,,0.00,VWS V14.01,2013-05-26 20:09:00,
2013-05-26 15:14:00,84.3,72.2,29.96,SE,143,9.0,20.0,67,0.00,,,0.00,VWS V14.01,2013-05-26 20:14:00,
2013-05-26 15:19:00,84.4,72.2,29.95,SSE,151,7.0,13.0,67,0.00,,,0.00,VWS V14.01,2013-05-26 20:19:00,
2013-05-26 15:24:00,84.3,71.7,29.95,SE,129,9.0,14.0,66,0.00,,,0.00,VWS V14.01,2013-05-26 20:24:00,
2013-05-26 15:29:00,84.7,72.1,29.95,South,188,4.0,16.0,66,0.00,,,0.00,VWS V14.01,2013-05-26 20:29:00,
2013-05-26 15:34:00,85.1,72.5,29.95,ESE,123,10.0,13.0,66,0.00,,,0.00,VWS V14.01,2013-05-26 20:34:00,
2013-05-26 15:41:00,84.7,71.6,29.95,SSW,198,10.0,13.0,65,0.00,,,0.00,VWS V14.01,2013-05-26 20:41:00,
2013-05-26 15:46:00,84.7,72.1,29.94,SSE,157,10.0,11.0,66,0.00,,,0.00,VWS V14.01,2013-05-26 20:46:00,
2013-05-26 15:51:00,84.5,71.9,29.94,SSW,199,10.0,10.0,66,0.00,,,0.00,VWS V14.01,2013-05-26 20:51:00,
2013-05-26 15:56:00,84.3,71.7,29.94,South,177,6.0,11.0,66,0.00,,,0.00,VWS V14.01,2013-05-26 20:56:00,
2013-05-26 16:00:00,84.3,71.7,29.93,South,184,7.0,11.0,66,0.00,,,0.00,VWS V14.01,2013-05-26 21:00:00,
2013-05-26 16:07:00,84.4,71.8,29.93,SSE,151,7.0,9.0,66,0.00,,,0.00,VWS V14.01,2013-05-26 21:07:00,
2013-05-26 16:12:00,84.6,71.6,29.93,SE,127,11.0,15.0,65,0.00,,,0.00,VWS V14.01,2013-05-26 21:12:00,
2013-05-26 16:17:00,84.5,71.9,29.93,SE,125,6.0,12.0,66,0.00,,,0.00,VWS V14.01,2013-05-26 21:17:00,
2013-05-26 16:22:00,84.2,72.5,29.93,SE,135,6.0,12.0,68,0.00,,,0.00,VWS V14.01,2013-05-26 21:22:00,
2013-05-26 16:27:00,84.2,71.6,29.93,ESE,118,11.0,12.0,66,0.00,,,0.00,VWS V14.01,2013-05-26 21:27:00,
2013-05-26 16:32:00,84.4,72.7,29.93,ESE,120,7.0,7.0,68,0.00,,,0.00,VWS V14.01,2013-05-26 21:32:00,
2013-05-26 16:37:00,84.2,72.5,29.93,ESE,123,10.0,10.0,68,0.00,,,0.00,VWS V14.01,2013-05-26 21:37:00,
2013-05-26 16:42:00,84.0,71.4,29.93,SSE,158,12.0,13.0,66,0.00,,,0.00,VWS V14.01,2013-05-26 21:42:00,
2013-05-26 16:52:00,82.7,72.3,29.92,SE,127,7.0,12.0,71,0.00,,,0.00,VWS V14.01,2013-05-26 21:52:00,
2013-05-26 16:57:00,82.3,72.4,29.93,SSE,153,14.0,16.0,72,0.00,,,0.00,VWS V14.01,2013-05-26 21:57:00,
2013-05-26 17:02:00,82.5,72.6,29.93,SSE,150,6.0,9.0,72,0.00,,,0.00,VWS V14.01,2013-05-26 22:02:00,
2013-05-26 17:07:00,82.9,72.5,29.92,SE,142,7.0,13.0,71,0.00,,,0.00,VWS V14.01,2013-05-26 22:07:00,
2013-05-26 17:13:00,83.2,73.2,29.92,South,174,5.0,10.0,72,0.00,,,0.00,VWS V14.01,2013-05-26 22:13:00,
2013-05-26 17:18:00,83.5,72.7,29.92,SE,139,6.0,10.0,70,0.00,,,0.00,VWS V14.01,2013-05-26 22:18:00,
2013-05-26 17:23:00,83.7,72.0,29.92,South,187,6.0,15.0,68,0.00,,,0.00,VWS V14.01,2013-05-26 22:23:00,
2013-05-26 17:28:00,83.9,71.3,29.92,SSE,164,13.0,15.0,66,0.00,,,0.00,VWS V14.01,2013-05-26 22:28:00,
2013-05-26 17:34:00,84.1,72.0,29.92,SSE,158,13.0,14.0,67,0.00,,,0.00,VWS V14.01,2013-05-26 22:34:00,
2013-05-26 17:39:00,84.0,72.3,29.92,SE,127,13.0,15.0,68,0.00,,,0.00,VWS V14.01,2013-05-26 22:39:00,
2013-05-26 17:45:00,83.2,72.0,29.92,SE,139,8.0,12.0,69,0.00,,,0.00,VWS V14.01,2013-05-26 22:45:00,
2013-05-26 17:50:00,83.2,72.4,29.92,SE,144,5.0,7.0,70,0.00,,,0.00,VWS V14.01,2013-05-26 22:50:00,
2013-05-26 17:56:00,83.3,71.6,29.93,SSE,150,12.0,15.0,68,0.00,,,0.00,VWS V14.01,2013-05-26 22:56:00,
2013-05-26 18:01:00,83.0,71.8,29.93,SE,132,9.0,11.0,69,0.00,,,0.00,VWS V14.01,2013-05-26 23:01:00,
2013-05-26 18:06:00,83.0,71.8,29.93,South,185,11.0,13.0,69,0.00,,,0.00,VWS V14.01,2013-05-26 23:06:00,
2013-05-26 18:11:00,82.6,71.8,29.93,SE,139,10.0,10.0,70,0.00,,,0.00,VWS V14.01,2013-05-26 23:11:00,
2013-05-26 18:17:00,82.1,71.8,29.92,SE,129,9.0,10.0,71,0.00,,,0.00,VWS V14.01,2013-05-26 23:17:00,
2013-05-26 18:22:00,81.8,71.9,29.92,SE,146,6.0,7.0,72,0.00,,,0.00,VWS V14.01,2013-05-26 23:22:00,
2013-05-26 18:27:00,81.9,70.7,29.92,SE,126,13.0,15.0,69,0.00,,,0.00,VWS V14.01,2013-05-26 23:27:00,
2013-05-26 18:32:00,82.1,70.1,29.92,South,172,8.0,19.0,67,0.00,,,0.00,VWS V14.01,2013-05-26 23:32:00,
2013-05-26 18:38:00,82.1,69.6,29.92,SSE,161,9.0,17.0,66,0.00,,,0.00,VWS V14.01,2013-05-26 23:38:00,
2013-05-26 18:43:00,82.2,69.7,29.91,SSE,168,3.0,15.0,66,0.00,,,0.00,VWS V14.01,2013-05-26 23:43:00,
2013-05-26 18:49:00,82.2,69.7,29.91,SSE,148,9.0,13.0,66,0.00,,,0.00,VWS V14.01,2013-05-26 23:49:00,
2013-05-26 18:54:00,82.2,69.7,29.91,SE,131,12.0,12.0,66,0.00,,,0.00,VWS V14.01,2013-05-26 23:54:00,
2013-05-26 19:00:00,82.1,70.5,29.91,SSE,159,14.0,14.0,68,0.00,,,0.00,VWS V14.01,2013-05-27 00:00:00,
2013-05-26 19:05:00,81.9,70.3,29.91,SE,146,14.0,14.0,68,0.00,,,0.00,VWS V14.01,2013-05-27 00:05:00,
2013-05-26 19:11:00,82.0,71.3,29.91,SSE,153,5.0,8.0,70,0.00,,,0.00,VWS V14.01,2013-05-27 00:11:00,
2013-05-26 19:16:00,81.9,70.7,29.91,SSE,147,12.0,15.0,69,0.00,,,0.00,VWS V14.01,2013-05-27 00:16:00,
2013-05-26 19:21:00,81.7,70.6,29.91,SSE,150,8.0,13.0,69,0.00,,,0.00,VWS V14.01,2013-05-27 00:21:00,
2013-05-26 19:26:00,81.5,70.4,29.91,SSE,150,12.0,13.0,69,0.00,,,0.00,VWS V14.01,2013-05-27 00:26:00,
2013-05-26 19:32:00,81.4,70.3,29.91,SE,133,7.0,11.0,69,0.00,,,0.00,VWS V14.01,2013-05-27 00:32:00,
2013-05-26 19:37:00,81.3,70.6,29.91,SSE,165,4.0,9.0,70,0.00,,,0.00,VWS V14.01,2013-05-27 00:37:00,
2013-05-26 19:42:00,81.1,70.4,29.91,SE,141,12.0,13.0,70,0.00,,,0.00,VWS V14.01,2013-05-27 00:42:00,
2013-05-26 19:47:00,80.9,69.4,29.91,SSE,150,6.0,15.0,68,0.00,,,0.00,VWS V14.01,2013-05-27 00:47:00,
2013-05-26 19:52:00,80.7,69.2,29.91,SE,140,12.0,14.0,68,0.00,,,0.00,VWS V14.01,2013-05-27 00:52:00,
2013-05-26 19:57:00,80.6,69.1,29.91,SSE,161,11.0,16.0,68,0.00,,,0.00,VWS V14.01,2013-05-27 00:57:00,
2013-05-26 20:06:00,80.3,68.8,29.92,SE,132,6.0,12.0,68,0.00,,,0.00,VWS V14.01,2013-05-27 01:06:00,
2013-05-26 20:11:00,80.2,68.7,29.92,SE,143,11.0,11.0,68,0.00,,,0.00,VWS V14.01,2013-05-27 01:11:00,
2013-05-26 20:17:00,80.0,68.9,29.91,SSE,156,6.0,9.0,69,0.00,,,0.00,VWS V14.01,2013-05-27 01:17:00,
2013-05-26 20:22:00,79.7,68.6,29.92,SSE,150,8.0,10.0,69,0.00,,,0.00,VWS V14.01,2013-05-27 01:22:00,
2013-05-26 20:27:00,79.5,68.9,29.92,SSE,150,5.0,8.0,70,0.00,,,0.00,VWS V14.01,2013-05-27 01:27:00,
2013-05-26 20:32:00,79.3,68.7,29.92,SSE,152,4.0,7.0,70,0.00,,,0.00,VWS V14.01,2013-05-27 01:32:00,
2013-05-26 20:38:00,79.1,68.5,29.92,SE,127,4.0,9.0,70,0.00,,,0.00,VWS V14.01,2013-05-27 01:38:00,
2013-05-26 20:43:00,79.0,68.4,29.92,South,175,6.0,8.0,70,0.00,,,0.00,VWS V14.01,2013-05-27 01:43:00,
2013-05-26 20:49:00,78.9,68.3,29.92,SE,146,4.0,8.0,70,0.00,,,0.00,VWS V14.01,2013-05-27 01:49:00,
2013-05-26 20:54:00,78.7,68.1,29.92,SSE,158,3.0,6.0,70,0.00,,,0.00,VWS V14.01,2013-05-27 01:54:00,
2013-05-26 20:59:00,78.5,68.3,29.92,ESE,113,4.0,7.0,71,0.00,,,0.00,VWS V14.01,2013-05-27 01:59:00,
2013-05-26 21:04:00,78.3,68.1,29.92,ESE,120,3.0,6.0,71,0.00,,,0.00,VWS V14.01,2013-05-27 02:04:00,
2013-05-26 21:10:00,78.1,68.3,29.93,SE,126,2.0,3.0,72,0.00,,,0.00,VWS V14.01,2013-05-27 02:10:00,
2013-05-26 21:15:00,77.8,68.1,29.93,SE,139,3.0,3.0,72,0.00,,,0.00,VWS V14.01,2013-05-27 02:15:00,
2013-05-26 21:21:00,77.6,67.9,29.93,SE,129,4.0,5.0,72,0.00,,,0.00,VWS V14.01,2013-05-27 02:21:00,
2013-05-26 21:26:00,77.5,68.2,29.93,ESE,120,4.0,6.0,73,0.00,,,0.00,VWS V14.01,2013-05-27 02:26:00,
2013-05-26 21:31:00,77.3,68.0,29.93,SSE,154,4.0,5.0,73,0.00,,,0.00,VWS V14.01,2013-05-27 02:31:00,
2013-05-26 21:36:00,77.1,68.2,29.93,SE,132,3.0,4.0,74,0.00,,,0.00,VWS V14.01,2013-05-27 02:36:00,
2013-05-26 21:41:00,76.8,67.9,29.93,SE,142,4.0,7.0,74,0.00,,,0.00,VWS V14.01,2013-05-27 02:41:00,
2013-05-26 21:46:00,76.6,68.1,29.93,ESE,123,6.0,6.0,75,0.00,,,0.00,VWS V14.01,2013-05-27 02:46:00,
2013-05-26 21:51:00,76.7,68.2,29.93,ESE,111,5.0,6.0,75,0.00,,,0.00,VWS V14.01,2013-05-27 02:51:00,
2013-05-26 21:56:00,76.6,68.1,29.93,SE,146,5.0,7.0,75,0.00,,,0.00,VWS V14.01,2013-05-27 02:56:00,
2013-05-26 22:01:00,76.6,68.1,29.94,SE,140,5.0,5.0,75,0.00,,,0.00,VWS V14.01,2013-05-27 03:01:00,
2013-05-26 22:06:00,76.4,67.9,29.94,SE,137,3.0,6.0,75,0.00,,,0.00,VWS V14.01,2013-05-27 03:06:00,
2013-05-26 22:11:00,76.3,67.8,29.94,SE,133,2.0,4.0,75,0.00,,,0.00,VWS V14.01,2013-05-27 03:11:00,
2013-05-26 22:16:00,76.1,68.0,29.94,SE,126,4.0,6.0,76,0.00,,,0.00,VWS V14.01,2013-05-27 03:16:00,
2013-05-26 22:21:00,76.0,67.9,29.94,SE,143,3.0,6.0,76,0.00,,,0.00,VWS V14.01,2013-05-27 03:21:00,
2013-05-26 22:26:00,75.9,67.8,29.94,SE,125,4.0,8.0,76,0.00,,,0.00,VWS V14.01,2013-05-27 03:26:00,
2013-05-26 22:31:00,75.8,67.7,29.95,SE,139,5.0,7.0,76,0.00,,,0.00,VWS V14.01,2013-05-27 03:31:00,
2013-05-26 22:36:00,75.7,68.0,29.95,SSE,163,4.0,8.0,77,0.00,,,0.00,VWS V14.01,2013-05-27 03:36:00,
2013-05-26 22:41:00,75.6,67.9,29.95,SE,142,3.0,5.0,77,0.00,,,0.00,VWS V14.01,2013-05-27 03:41:00,
2013-05-26 22:46:00,75.4,68.1,29.95,SE,136,2.0,6.0,78,0.00,,,0.00,VWS V14.01,2013-05-27 03:46:00,
2013-05-26 22:51:00,75.1,67.8,29.95,ESE,118,0.0,2.0,78,0.00,,,0.00,VWS V14.01,2013-05-27 03:51:00,
2013-05-26 22:56:00,74.9,67.9,29.95,ESE,118,2.0,4.0,79,0.00,,,0.00,VWS V14.01,2013-05-27 03:56:00,
2013-05-26 23:01:00,74.7,68.1,29.96,SE,133,5.0,5.0,80,0.00,,,0.00,VWS V14.01,2013-05-27 04:01:00,
2013-05-26 23:06:00,74.6,68.4,29.96,ESE,123,2.0,6.0,81,0.00,,,0.00,VWS V14.01,2013-05-27 04:06:00,
2013-05-26 23:11:00,74.6,68.4,29.96,ESE,115,3.0,5.0,81,0.00,,,0.00,VWS V14.01,2013-05-27 04:11:00,
2013-05-26 23:16:00,74.4,68.2,29.96,SE,140,6.0,8.0,81,0.00,,,0.00,VWS V14.01,2013-05-27 04:16:00,
2013-05-26 23:21:00,74.4,68.2,29.96,SE,132,4.0,5.0,81,0.00,,,0.00,VWS V14.01,2013-05-27 04:21:00,
2013-05-26 23:26:00,74.3,68.4,29.96,SE,139,4.0,6.0,82,0.00,,,0.00,VWS V14.01,2013-05-27 04:26:00,
2013-05-26 23:31:00,74.1,68.3,29.96,SE,137,4.0,5.0,82,0.00,,,0.00,VWS V14.01,2013-05-27 04:31:00,
2013-05-26 23:36:00,74.0,68.2,29.95,SE,140,7.0,8.0,82,0.00,,,0.00,VWS V14.01,2013-05-27 04:36:00,
2013-05-26 23:41:00,74.0,68.2,29.95,SE,140,5.0,6.0,82,0.00,,,0.00,VWS V14.01,2013-05-27 04:41:00,
2013-05-26 23:46:00,73.9,68.4,29.95,SE,142,7.0,7.0,83,0.00,,,0.00,VWS V14.01,2013-05-27 04:46:00,
2013-05-26 23:51:00,73.9,68.4,29.95,SSE,161,4.0,8.0,83,0.00,,,0.00,VWS V14.01,2013-05-27 04:51:00,
2013-05-26 23:56:00,73.9,68.4,29.95,South,170,4.0,7.0,83,0.00,,,0.00,VWS V14.01,2013-05-27 04:56:00,